Time;durP1;ratioP1;P1;durP2;ratioP2;P2;SDS_P1;SDS_P2;PMS_P1;PMS_P2;Temp;Humidity;BMP_temperature;BMP_pressure;BME280_temperature;BME280_humidity;BME280_pressure;Samples;Min_cycle;Max_cycle;Signal;HPM_P1;HPM_P2
2022/03/17 00:00:15;;;;;;;95.47;76.63;;;;;21.90;100913.00;;;;2071296;28;20276;-50
2022/03/17 00:01:15;;;;;;;89.22;75.38;;;;;21.90;100913.00;;;;2071619;28;20213;-50
2022/03/17 00:02:16;;;;;;;86.40;74.37;;;;;21.90;100911.00;;;;2079802;28;20205;-50
2022/03/17 00:03:16;;;;;;;84.73;70.40;;;;;21.90;100907.00;;;;2079608;28;20255;-50
2022/03/17 00:04:21;;;;;;;88.70;72.77;;;;;21.90;100906.00;;;;2076758;28;20220;-50
2022/03/17 00:05:22;;;;;;;85.00;70.50;;;;;21.90;100915.00;;;;2070992;28;20288;-50
2022/03/17 00:06:22;;;;;;;82.47;70.10;;;;;21.90;100915.00;;;;2071309;28;21019;-50
2022/03/17 00:07:22;;;;;;;86.00;71.60;;;;;21.90;100916.00;;;;2071265;28;20228;-50
2022/03/17 00:08:23;;;;;;;82.57;68.70;;;;;21.90;100916.00;;;;2070419;28;20210;-50
2022/03/17 00:09:24;;;;;;;79.17;68.77;;;;;21.80;100916.00;;;;2070646;28;20281;-50
2022/03/17 00:10:24;;;;;;;83.00;66.83;;;;;21.80;100917.00;;;;2071319;28;20466;-49
2022/03/17 00:11:24;;;;;;;80.80;65.83;;;;;21.80;100914.00;;;;2071422;28;20248;-50
2022/03/17 00:12:25;;;;;;;74.87;64.60;;;;;21.80;100919.00;;;;2071383;28;20210;-50
2022/03/17 00:13:26;;;;;;;82.00;64.87;;;;;21.80;100915.00;;;;2071401;28;20223;-50
2022/03/17 00:14:26;;;;;;;79.28;65.03;;;;;21.80;100867.00;;;;2071002;28;20214;-50
2022/03/17 00:15:27;;;;;;;67.63;59.03;;;;;21.80;100916.00;;;;2070613;28;20233;-49
2022/03/17 00:16:28;;;;;;;74.63;62.23;;;;;21.80;100916.00;;;;2071504;28;20221;-50
2022/03/17 00:17:28;;;;;;;79.63;63.33;;;;;21.80;100909.00;;;;2070939;28;20524;-50
2022/03/17 00:18:29;;;;;;;70.27;61.73;;;;;21.80;100918.00;;;;2071438;28;20457;-50
2022/03/17 00:19:30;;;;;;;71.40;59.73;;;;;21.80;100921.00;;;;2071350;28;20214;-49
2022/03/17 00:20:30;;;;;;;71.28;59.53;;;;;21.80;100923.00;;;;2071389;28;20574;-50
2022/03/17 00:21:31;;;;;;;68.03;57.43;;;;;21.80;100922.00;;;;2067636;28;20228;-49
2022/03/17 00:22:31;;;;;;;65.40;57.13;;;;;21.80;100921.00;;;;2079007;28;20690;-49
2022/03/17 00:23:32;;;;;;;71.20;60.60;;;;;21.80;100933.00;;;;2078329;28;20312;-50
2022/03/17 00:24:32;;;;;;;71.37;59.50;;;;;21.80;100925.00;;;;2079355;28;20217;-49
2022/03/17 00:25:33;;;;;;;65.83;55.80;;;;;21.80;100921.00;;;;2078826;28;20583;-50
2022/03/17 00:26:34;;;;;;;66.53;56.40;;;;;21.80;100927.00;;;;2071382;28;20210;-49
2022/03/17 00:27:35;;;;;;;68.80;58.50;;;;;21.80;100925.00;;;;2070666;28;20581;-49
2022/03/17 00:28:35;;;;;;;63.87;53.20;;;;;21.80;100927.00;;;;2071289;28;20305;-49
2022/03/17 00:29:36;;;;;;;65.40;55.73;;;;;21.80;100925.00;;;;2071276;28;20233;-50
2022/03/17 00:30:36;;;;;;;61.80;53.40;;;;;21.80;100926.00;;;;2070803;28;20218;-49
2022/03/17 00:31:39;;;;;;;62.30;53.47;;;;;21.80;100926.00;;;;2070695;28;20218;-49
2022/03/17 00:32:39;;;;;;;62.15;54.15;;;;;21.80;100927.00;;;;2071456;28;20226;-49
2022/03/17 00:33:40;;;;;;;65.70;54.17;;;;;21.80;100929.00;;;;2071308;28;20218;-49
2022/03/17 00:35:59;;;;;;;61.15;52.80;;;;;21.80;100934.00;;;;2070520;28;20225;-49
2022/03/17 00:37:00;;;;;;;60.17;51.37;;;;;21.80;100933.00;;;;2071346;28;20214;-50
2022/03/17 00:38:00;;;;;;;54.93;48.80;;;;;21.80;100932.00;;;;2071150;28;20454;-49
2022/03/17 00:39:01;;;;;;;59.77;49.50;;;;;21.80;100934.00;;;;2074445;28;20359;-49
2022/03/17 00:40:02;;;;;;;57.60;50.83;;;;;21.80;100932.00;;;;2079472;28;20304;-50
2022/03/17 00:41:02;;;;;;;59.05;50.90;;;;;21.80;100926.00;;;;2074263;28;20209;-50
2022/03/17 00:42:03;;;;;;;55.27;48.07;;;;;21.80;100928.00;;;;2070918;28;20210;-50
2022/03/17 00:43:04;;;;;;;57.37;51.10;;;;;21.80;100922.00;;;;2078216;28;20217;-49
2022/03/17 00:44:04;;;;;;;59.25;50.95;;;;;21.80;100923.00;;;;2079297;28;20206;-49
2022/03/17 00:45:05;;;;;;;54.77;47.50;;;;;21.80;100924.00;;;;2079198;28;20202;-50
2022/03/17 00:46:06;;;;;;;55.65;48.00;;;;;21.80;100929.00;;;;2078648;28;20209;-50
2022/03/17 00:47:06;;;;;;;55.97;48.97;;;;;21.80;100937.00;;;;2075999;28;20691;-49
2022/03/17 00:48:07;;;;;;;55.27;47.43;;;;;21.80;100922.00;;;;2070836;28;20219;-49
2022/03/17 00:49:07;;;;;;;51.67;46.07;;;;;21.80;100930.00;;;;2070465;28;20710;-49
2022/03/17 00:50:08;;;;;;;52.20;46.30;;;;;21.80;100927.00;;;;2070314;28;20853;-50
2022/03/17 00:51:08;;;;;;;53.53;47.53;;;;;21.80;100933.00;;;;2071011;28;20225;-49
2022/03/17 00:52:11;;;;;;;51.90;45.90;;;;;21.70;100935.00;;;;2071133;28;20222;-50
2022/03/17 00:53:11;;;;;;;53.33;45.67;;;;;21.70;100928.00;;;;2071157;28;20222;-49
2022/03/17 00:54:11;;;;;;;53.33;47.67;;;;;21.80;100930.00;;;;2071044;28;20313;-49
2022/03/17 00:55:14;;;;;;;50.97;44.47;;;;;21.70;100936.00;;;;2071159;28;20214;-49
2022/03/17 00:56:14;;;;;;;49.53;42.88;;;;;21.70;100917.00;;;;2070489;28;20214;-49
2022/03/17 00:57:14;;;;;;;48.57;43.17;;;;;21.80;100934.00;;;;2070032;28;20581;-49
2022/03/17 00:58:15;;;;;;;45.80;40.80;;;;;21.80;100935.00;;;;2071097;28;20593;-49
2022/03/17 00:59:15;;;;;;;48.83;42.00;;;;;21.70;100952.00;;;;2070384;28;20706;-50
2022/03/17 01:00:16;;;;;;;49.10;42.70;;;;;21.70;100933.00;;;;2070661;28;20686;-49
2022/03/17 01:01:16;;;;;;;48.38;41.65;;;;;21.70;100922.00;;;;2071130;28;20241;-49
2022/03/17 01:02:17;;;;;;;49.87;43.50;;;;;21.70;100922.00;;;;2071090;28;20218;-50
2022/03/17 01:03:17;;;;;;;46.30;41.30;;;;;21.80;100942.00;;;;2070777;28;20206;-49
2022/03/17 01:04:17;;;;;;;46.20;40.50;;;;;21.70;100925.00;;;;2070906;28;20222;-49
2022/03/17 01:05:18;;;;;;;48.93;43.63;;;;;21.70;100925.00;;;;2070638;28;20234;-50
2022/03/17 01:06:19;;;;;;;45.93;40.90;;;;;21.70;100929.00;;;;2070649;28;20253;-49
2022/03/17 01:07:19;;;;;;;46.35;41.25;;;;;21.70;100920.00;;;;2070980;28;20249;-49
2022/03/17 01:08:19;;;;;;;48.03;42.90;;;;;21.70;100910.00;;;;2070976;28;20341;-50
2022/03/17 01:09:20;;;;;;;47.07;40.27;;;;;21.80;100926.00;;;;2071077;28;20210;-49
2022/03/17 01:10:20;;;;;;;46.57;41.67;;;;;21.70;100920.00;;;;2070468;28;20214;-49
2022/03/17 01:11:20;;;;;;;46.83;40.63;;;;;21.70;100914.00;;;;2070523;28;20563;-49
2022/03/17 01:12:21;;;;;;;45.03;39.87;;;;;21.70;100914.00;;;;2077699;28;20288;-49
2022/03/17 01:13:21;;;;;;;42.87;36.60;;;;;21.70;100914.00;;;;2078592;28;20214;-54
2022/03/17 01:14:21;;;;;;;44.70;39.80;;;;;21.70;100920.00;;;;2078846;28;20213;-50
2022/03/17 01:15:22;;;;;;;40.60;36.27;;;;;21.60;100909.00;;;;2078606;28;20209;-50
2022/03/17 01:16:22;;;;;;;43.70;38.80;;;;;21.70;100914.00;;;;2078622;28;20260;-50
2022/03/17 01:17:23;;;;;;;41.73;36.43;;;;;21.70;100906.00;;;;2074537;28;20206;-50
2022/03/17 01:18:23;;;;;;;41.80;37.20;;;;;21.70;100913.00;;;;2075854;28;20220;-51
2022/03/17 01:19:23;;;;;;;42.10;37.50;;;;;21.70;100908.00;;;;2079069;28;20264;-50
2022/03/17 01:20:24;;;;;;;39.87;35.70;;;;;21.70;100915.00;;;;2078342;28;20590;-49
2022/03/17 01:21:24;;;;;;;41.73;36.50;;;;;21.70;100912.00;;;;2078233;28;20210;-50
2022/03/17 01:22:24;;;;;;;42.67;38.10;;;;;21.70;100909.00;;;;2078875;28;20293;-50
2022/03/17 01:23:25;;;;;;;39.80;35.60;;;;;21.70;100904.00;;;;2079026;28;20233;-50
2022/03/17 01:24:25;;;;;;;41.27;36.97;;;;;21.70;100909.00;;;;2078734;28;20209;-50
2022/03/17 01:25:25;;;;;;;38.73;34.70;;;;;21.70;100907.00;;;;2078329;28;20535;-50
2022/03/17 01:26:26;;;;;;;38.47;34.23;;;;;21.70;100908.00;;;;2078976;28;20198;-50
2022/03/17 01:27:26;;;;;;;37.63;33.23;;;;;21.70;100903.00;;;;2078769;28;20220;-49
2022/03/17 01:28:27;;;;;;;40.20;36.03;;;;;21.70;100903.00;;;;2078636;28;20670;-50
2022/03/17 01:29:29;;;;;;;37.60;33.67;;;;;21.70;100900.00;;;;2071914;28;20232;-50
2022/03/17 01:30:29;;;;;;;38.17;33.92;;;;;21.70;100904.00;;;;2075394;28;20209;-50
2022/03/17 01:31:29;;;;;;;35.90;32.10;;;;;21.70;100900.00;;;;2078868;28;20589;-50
2022/03/17 01:32:32;;;;;;;35.60;31.70;;;;;21.70;100899.00;;;;2078883;28;20216;-49
2022/03/17 01:33:32;;;;;;;34.78;31.02;;;;;21.70;100905.00;;;;2078872;28;20691;-49
2022/03/17 01:34:33;;;;;;;36.00;32.10;;;;;21.70;100906.00;;;;2078984;28;20228;-50
2022/03/17 01:35:33;;;;;;;36.03;30.90;;;;;21.70;100895.00;;;;2078238;28;20217;-49
2022/03/17 01:36:34;;;;;;;33.67;30.33;;;;;21.70;100904.00;;;;2078679;28;20789;-50
2022/03/17 01:37:34;;;;;;;36.53;32.73;;;;;21.70;100891.00;;;;2078195;28;20751;-50
2022/03/17 01:38:35;;;;;;;35.47;31.80;;;;;21.70;100903.00;;;;2078465;28;20308;-49
2022/03/17 01:39:36;;;;;;;35.07;30.47;;;;;21.70;100896.00;;;;2078767;28;20210;-50
2022/03/17 01:40:36;;;;;;;35.85;31.95;;;;;21.70;100890.00;;;;2078755;28;20220;-50
2022/03/17 01:41:38;;;;;;;35.33;31.57;;;;;21.70;100896.00;;;;2078139;28;20224;-50
2022/03/17 01:42:39;;;;;;;33.75;30.15;;;;;21.60;100901.00;;;;2078808;28;20237;-50
2022/03/17 01:43:40;;;;;;;32.70;28.95;;;;;21.60;100894.00;;;;2077971;28;20228;-49
2022/03/17 01:44:40;;;;;;;31.97;28.60;;;;;21.70;100903.00;;;;2078919;28;20685;-50
2022/03/17 01:45:40;;;;;;;34.27;30.63;;;;;21.60;100897.00;;;;2077963;28;20221;-50
2022/03/17 01:48:00;;;;;;;32.38;28.88;;;;;21.60;100896.00;;;;2078244;28;20571;-50
2022/03/17 01:49:00;;;;;;;31.97;28.60;;;;;21.60;100894.00;;;;2078531;28;20320;-50
2022/03/17 01:50:03;;;;;;;32.93;29.33;;;;;21.60;100889.00;;;;2078764;28;20213;-50
2022/03/17 01:51:03;;;;;;;31.08;27.75;;;;;21.70;100893.00;;;;2078723;28;21015;-50
2022/03/17 01:52:04;;;;;;;31.60;28.30;;;;;21.60;100902.00;;;;2074144;28;20210;-50
2022/03/17 01:53:04;;;;;;;32.37;28.87;;;;;21.60;100900.00;;;;2075159;28;20802;-49
2022/03/17 01:54:05;;;;;;;32.00;27.93;;;;;21.60;100893.00;;;;2077978;28;20214;-49
2022/03/17 01:55:05;;;;;;;31.63;28.33;;;;;21.60;100894.00;;;;2071492;28;20319;-50
2022/03/17 01:56:06;;;;;;;32.67;29.10;;;;;21.60;100895.00;;;;2070149;28;20302;-50
2022/03/17 01:57:06;;;;;;;31.83;28.53;;;;;21.60;100894.00;;;;2078172;28;20240;-48
2022/03/17 01:58:07;;;;;;;30.43;27.47;;;;;21.60;100895.00;;;;2077738;28;20268;-51
2022/03/17 01:59:07;;;;;;;32.53;28.87;;;;;21.60;100897.00;;;;2077996;28;20244;-50
2022/03/17 02:00:10;;;;;;;29.27;26.37;;;;;21.60;100893.00;;;;2078062;28;20209;-50
2022/03/17 02:01:10;;;;;;;28.83;25.95;;;;;21.60;100884.00;;;;2077980;28;20288;-50
2022/03/17 02:02:11;;;;;;;30.10;27.00;;;;;21.60;100893.00;;;;2077559;28;20224;-50
2022/03/17 02:03:11;;;;;;;30.45;27.35;;;;;21.60;100886.00;;;;2077707;28;20209;-50
2022/03/17 02:04:12;;;;;;;29.13;25.97;;;;;21.60;100894.00;;;;2078582;28;20296;-50
2022/03/17 02:05:12;;;;;;;28.40;25.50;;;;;21.60;100887.00;;;;2078001;28;20267;-50
2022/03/17 02:06:13;;;;;;;30.00;26.93;;;;;21.60;100879.00;;;;2077197;28;20210;-50
2022/03/17 02:07:14;;;;;;;27.00;24.40;;;;;21.60;100884.00;;;;2078405;28;20213;-49
2022/03/17 02:08:14;;;;;;;28.73;25.80;;;;;21.60;100880.00;;;;2078130;28;20221;-49
2022/03/17 02:09:14;;;;;;;30.17;27.17;;;;;21.60;100888.00;;;;2077529;28;20321;-50
2022/03/17 02:10:15;;;;;;;28.47;25.67;;;;;21.60;100895.00;;;;2069892;28;20210;-50
2022/03/17 02:13:53;;;;;;;27.10;24.30;;;;;21.60;100895.00;;;;2078716;28;20213;-49
2022/03/17 02:15:00;;;;;;;29.20;26.30;;;;;21.60;100902.00;;;;2078586;28;20217;-50
2022/03/17 02:16:03;;;;;;;26.90;24.20;;;;;21.60;100897.00;;;;2077707;28;20453;-50
2022/03/17 02:17:05;;;;;;;27.17;24.25;;;;;21.60;100890.00;;;;2078383;28;20224;-50
2022/03/17 02:18:06;;;;;;;25.52;22.92;;;;;21.60;100894.00;;;;2078130;28;20213;-50
2022/03/17 02:19:07;;;;;;;27.20;24.40;;;;;21.60;100889.00;;;;2078470;28;20213;-50
2022/03/17 02:20:09;;;;;;;26.27;23.77;;;;;21.60;100892.00;;;;2078639;28;20204;-50
2022/03/17 02:21:11;;;;;;;26.00;23.48;;;;;21.60;100892.00;;;;2077953;28;20263;-50
2022/03/17 02:22:13;;;;;;;25.67;23.08;;;;;21.60;100895.00;;;;2077796;28;20577;-50
2022/03/17 02:25:55;;;;;;;25.98;23.23;;;;;21.50;100905.00;;;;2077931;28;20217;-49
2022/03/17 02:26:58;;;;;;;24.30;21.92;;;;;21.60;100897.00;;;;2078480;28;20217;-50
2022/03/17 02:27:59;;;;;;;24.10;21.70;;;;;21.60;100892.00;;;;2069382;28;20272;-50
2022/03/17 02:29:00;;;;;;;24.63;22.23;;;;;21.60;100894.00;;;;2069808;28;20607;-49
2022/03/17 02:30:03;;;;;;;24.80;22.30;;;;;21.60;100903.00;;;;2078613;28;20217;-49
2022/03/17 02:31:04;;;;;;;24.10;21.83;;;;;21.60;100883.00;;;;2074402;28;20217;-49
2022/03/17 02:32:04;;;;;;;23.55;21.10;;;;;21.60;100901.00;;;;2078504;28;20210;-49
2022/03/17 02:33:06;;;;;;;23.47;21.17;;;;;21.60;100907.00;;;;2073681;28;20655;-49
2022/03/17 02:34:07;;;;;;;23.42;21.15;;;;;21.60;100900.00;;;;2069661;28;20206;-49
2022/03/17 02:35:09;;;;;;;22.93;20.73;;;;;21.50;100894.00;;;;2069682;28;20210;-49
2022/03/17 02:36:10;;;;;;;23.15;20.90;;;;;21.50;100895.00;;;;2069030;28;20217;-49
2022/03/17 02:37:12;;;;;;;23.23;21.03;;;;;21.50;100894.00;;;;2069389;28;20210;-49
2022/03/17 02:38:15;;;;;;;23.35;21.13;;;;;21.50;100892.00;;;;2069984;28;20217;-49
2022/03/17 02:39:16;;;;;;;24.50;21.95;;;;;21.60;100898.00;;;;2070145;28;20710;-49
2022/03/17 02:40:17;;;;;;;23.08;20.67;;;;;21.50;100893.00;;;;2070342;28;20214;-49
2022/03/17 02:41:22;;;;;;;22.33;20.07;;;;;21.50;100902.00;;;;2070376;28;20195;-49
2022/03/17 02:42:23;;;;;;;22.88;20.67;;;;;21.50;100897.00;;;;2070322;28;20226;-49
2022/03/17 02:43:23;;;;;;;22.17;19.93;;;;;21.50;100894.00;;;;2070406;28;20220;-49
2022/03/17 02:44:24;;;;;;;22.40;20.10;;;;;21.50;100902.00;;;;2071877;28;20697;-49
2022/03/17 02:45:24;;;;;;;21.57;19.57;;;;;21.50;100898.00;;;;2077764;28;20229;-50
2022/03/17 02:46:25;;;;;;;21.53;19.33;;;;;21.50;100899.00;;;;2078400;28;20308;-49
2022/03/17 02:47:26;;;;;;;21.77;19.57;;;;;21.50;100897.00;;;;2078315;28;20221;-48
2022/03/17 02:48:27;;;;;;;23.15;20.88;;;;;21.50;100887.00;;;;2078213;28;20232;-50
2022/03/17 02:49:28;;;;;;;21.73;19.73;;;;;21.50;100882.00;;;;2078561;28;20584;-48
2022/03/17 02:50:29;;;;;;;20.55;18.65;;;;;21.50;100885.00;;;;2078358;28;20213;-49
2022/03/17 02:51:29;;;;;;;22.23;19.97;;;;;21.50;100886.00;;;;2070501;28;20224;-49
2022/03/17 02:52:29;;;;;;;21.17;19.07;;;;;21.50;100878.00;;;;2070299;28;20219;-48
2022/03/17 02:53:30;;;;;;;21.80;19.70;;;;;21.50;100879.00;;;;2064422;28;20297;-49
2022/03/17 02:54:30;;;;;;;22.57;20.23;;;;;21.50;100877.00;;;;2070164;28;20272;-49
2022/03/17 02:55:41;;;;;;;20.90;18.83;;;;;21.50;100877.00;;;;2077245;28;20272;-49
2022/03/17 02:56:41;;;;;;;20.15;18.15;;;;;21.50;100879.00;;;;2078139;28;20983;-49
2022/03/17 02:57:44;;;;;;;21.83;19.70;;;;;21.50;100885.00;;;;2073168;28;20247;-48
2022/03/17 02:58:45;;;;;;;20.58;18.48;;;;;21.50;100880.00;;;;2086001;28;20287;-49
2022/03/17 02:59:46;;;;;;;20.77;18.77;;;;;21.50;100884.00;;;;2080828;28;20718;-49
2022/03/17 03:00:47;;;;;;;19.85;17.88;;;;;21.50;100871.00;;;;2078340;28;20218;-49
2022/03/17 03:01:47;;;;;;;19.93;18.03;;;;;21.50;100888.00;;;;2077352;28;20221;-49
2022/03/17 03:02:48;;;;;;;19.30;17.43;;;;;21.30;100890.00;;;;2078364;28;20498;-49
2022/03/17 03:03:48;;;;;;;19.50;17.60;;;;;21.50;100884.00;;;;2078401;28;20214;-49
2022/03/17 03:04:48;;;;;;;19.63;17.73;;;;;21.50;100895.00;;;;2078266;28;20217;-49
2022/03/17 03:05:49;;;;;;;20.50;18.50;;;;;21.50;100888.00;;;;2077661;28;20213;-49
2022/03/17 03:06:49;;;;;;;19.83;18.03;;;;;21.50;100887.00;;;;2078177;28;20228;-50
2022/03/17 03:07:49;;;;;;;20.50;18.60;;;;;21.50;100885.00;;;;2078556;28;20225;-49
2022/03/17 03:08:50;;;;;;;20.63;18.70;;;;;21.50;100900.00;;;;2078039;28;20732;-48
2022/03/17 03:09:51;;;;;;;18.80;16.93;;;;;21.50;100900.00;;;;2077890;28;20217;-49
2022/03/17 03:10:51;;;;;;;19.42;17.60;;;;;21.50;100892.00;;;;2077758;28;20218;-49
2022/03/17 03:11:51;;;;;;;18.53;16.73;;;;;21.50;100893.00;;;;2069628;28;20207;-49
2022/03/17 03:12:52;;;;;;;19.47;17.67;;;;;21.50;100888.00;;;;2069787;28;20222;-50
2022/03/17 03:13:52;;;;;;;20.00;18.10;;;;;21.50;100901.00;;;;2070286;28;20256;-49
2022/03/17 03:14:52;;;;;;;19.27;17.53;;;;;21.50;100892.00;;;;2070241;28;20215;-49
2022/03/17 03:15:53;;;;;;;19.13;17.33;;;;;21.50;100895.00;;;;2069759;28;21031;-49
2022/03/17 03:16:53;;;;;;;20.40;18.23;;;;;21.40;100904.00;;;;2070194;28;20223;-49
2022/03/17 03:17:55;;;;;;;18.57;16.87;;;;;21.50;100896.00;;;;2070217;28;20221;-49
2022/03/17 03:18:55;;;;;;;18.85;17.15;;;;;21.40;100905.00;;;;2069501;28;20602;-48
2022/03/17 03:19:55;;;;;;;17.23;15.63;;;;;21.50;100898.00;;;;2070360;28;20214;-49
2022/03/17 03:20:56;;;;;;;18.33;16.57;;;;;21.50;100903.00;;;;2071223;28;20246;-48
2022/03/17 03:21:56;;;;;;;18.20;16.50;;;;;21.40;100906.00;;;;2071806;28;20229;-49
2022/03/17 03:22:57;;;;;;;17.70;15.90;;;;;21.40;100899.00;;;;2071867;28;20257;-50
2022/03/17 03:23:57;;;;;;;17.47;15.87;;;;;21.40;100901.00;;;;2071617;28;21677;-49
2022/03/17 03:24:58;;;;;;;17.80;16.10;;;;;21.50;100913.00;;;;2071172;28;20950;-49
2022/03/17 03:25:58;;;;;;;18.40;16.70;;;;;21.40;100904.00;;;;2070616;28;20698;-50
2022/03/17 03:26:58;;;;;;;17.97;16.27;;;;;21.50;100909.00;;;;2071070;28;20819;-49
2022/03/17 03:28:07;;;;;;;17.57;15.93;;;;;21.50;100919.00;;;;2075293;28;20217;-49
2022/03/17 03:29:28;;;;;;;17.30;15.70;;;;;21.40;100896.00;;;;2078906;28;20571;-49
2022/03/17 03:30:28;;;;;;;17.60;16.02;;;;;21.40;100903.00;;;;2076749;28;20239;-49
2022/03/17 03:31:28;;;;;;;17.93;16.13;;;;;21.40;100906.00;;;;2079446;28;20229;-49
2022/03/17 03:32:29;;;;;;;18.00;16.33;;;;;21.40;100895.00;;;;2079141;28;20218;-50
2022/03/17 03:33:29;;;;;;;16.87;15.27;;;;;21.40;100903.00;;;;2079550;28;20209;-49
2022/03/17 03:34:29;;;;;;;17.43;15.87;;;;;21.40;100907.00;;;;2079149;28;20217;-48
2022/03/17 03:38:08;;;;;;;17.58;15.82;;;;;21.40;100907.00;;;;2079363;28;20209;-49
2022/03/17 03:39:08;;;;;;;16.77;15.27;;;;;21.40;100907.00;;;;2079016;28;20635;-50
2022/03/17 03:40:09;;;;;;;16.60;15.10;;;;;21.40;100907.00;;;;2074358;28;20642;-50
2022/03/17 03:41:09;;;;;;;15.97;14.37;;;;;21.40;100910.00;;;;2071155;28;20854;-49
2022/03/17 03:42:10;;;;;;;17.40;15.90;;;;;21.40;100907.00;;;;2070784;28;20237;-55
2022/03/17 03:43:10;;;;;;;17.30;15.70;;;;;21.40;100906.00;;;;2071083;28;20276;-49
2022/03/17 03:44:14;;;;;;;15.83;14.23;;;;;21.40;100906.00;;;;2070086;28;20222;-51
2022/03/17 03:45:14;;;;;;;17.25;15.45;;;;;21.40;100911.00;;;;2068925;28;20214;-49
2022/03/17 03:46:14;;;;;;;17.10;15.50;;;;;21.40;100916.00;;;;2070518;28;20257;-48
2022/03/17 03:47:15;;;;;;;16.80;15.13;;;;;21.40;100921.00;;;;2070277;28;20721;-49
2022/03/17 03:48:15;;;;;;;16.60;15.03;;;;;21.40;100924.00;;;;2070483;28;20706;-49
2022/03/17 03:49:16;;;;;;;16.70;15.20;;;;;21.40;100925.00;;;;2070847;28;20222;-50
2022/03/17 03:50:16;;;;;;;15.60;14.10;;;;;21.40;100926.00;;;;2070735;28;20206;-49
2022/03/17 03:51:17;;;;;;;16.63;15.03;;;;;21.40;100925.00;;;;2070914;28;20713;-48
2022/03/17 03:52:17;;;;;;;15.70;14.30;;;;;21.40;100932.00;;;;2070969;28;20268;-48
2022/03/17 03:53:17;;;;;;;17.00;15.40;;;;;21.40;100945.00;;;;2070919;28;20202;-49
2022/03/17 03:54:18;;;;;;;15.60;14.23;;;;;21.40;100950.00;;;;2069322;28;20214;-49
2022/03/17 03:55:18;;;;;;;15.80;14.40;;;;;21.40;100946.00;;;;2070061;28;20234;-50
2022/03/17 03:56:19;;;;;;;16.30;14.80;;;;;21.40;100943.00;;;;2070787;28;20838;-49
2022/03/17 03:57:19;;;;;;;15.43;14.10;;;;;21.40;100954.00;;;;2072788;28;20214;-50
2022/03/17 03:58:19;;;;;;;16.13;14.63;;;;;21.40;100947.00;;;;2078956;28;20213;-49
2022/03/17 03:59:21;;;;;;;15.50;14.10;;;;;21.40;100950.00;;;;2078836;28;20699;-49
2022/03/17 04:00:41;;;;;;;15.55;14.15;;;;;21.40;100950.00;;;;2079092;28;20685;-49
2022/03/17 04:01:42;;;;;;;16.02;14.63;;;;;21.40;100952.00;;;;2079080;28;20213;-49
2022/03/17 04:02:43;;;;;;;15.77;14.27;;;;;21.40;100954.00;;;;2079378;28;20222;-49
2022/03/17 04:03:44;;;;;;;16.60;15.18;;;;;21.40;100953.00;;;;2078267;28;20642;-50
2022/03/17 04:04:45;;;;;;;16.65;15.10;;;;;21.40;100964.00;;;;2078860;28;20213;-50
2022/03/17 04:05:45;;;;;;;16.97;15.37;;;;;21.40;100958.00;;;;2077938;28;20565;-50
2022/03/17 04:06:47;;;;;;;16.03;14.43;;;;;21.40;100957.00;;;;2078820;28;20225;-50
2022/03/17 04:07:47;;;;;;;14.95;13.45;;;;;21.40;100957.00;;;;2078621;28;20224;-50
2022/03/17 04:08:48;;;;;;;14.80;13.40;;;;;21.40;100962.00;;;;2078894;28;21012;-50
2022/03/17 04:09:48;;;;;;;15.23;13.90;;;;;21.40;100960.00;;;;2078629;28;20631;-50
2022/03/17 04:10:48;;;;;;;14.93;13.63;;;;;21.40;100961.00;;;;2078986;28;20225;-50
2022/03/17 04:11:49;;;;;;;15.70;14.20;;;;;21.40;100960.00;;;;2078692;28;20217;-50
2022/03/17 04:12:49;;;;;;;15.67;14.17;;;;;21.40;100968.00;;;;2069886;28;20391;-49
2022/03/17 04:13:50;;;;;;;15.33;13.97;;;;;21.40;100964.00;;;;2069729;28;20701;-49
2022/03/17 04:14:50;;;;;;;13.93;12.63;;;;;21.40;100967.00;;;;2078860;28;20241;-49
2022/03/17 04:15:51;;;;;;;14.83;13.43;;;;;21.40;100968.00;;;;2077783;28;20566;-50
2022/03/17 04:16:52;;;;;;;14.97;13.57;;;;;21.40;100970.00;;;;2078538;28;20221;-49
2022/03/17 04:17:52;;;;;;;15.03;13.63;;;;;21.40;100975.00;;;;2077068;28;20304;-49
2022/03/17 04:18:52;;;;;;;14.93;13.53;;;;;21.40;100980.00;;;;2077849;28;20280;-49
2022/03/17 04:19:53;;;;;;;14.93;13.53;;;;;21.40;100980.00;;;;2078568;28;20257;-49
2022/03/17 04:20:54;;;;;;;15.25;13.85;;;;;21.40;100985.00;;;;2075820;28;20697;-50
2022/03/17 04:21:54;;;;;;;14.13;12.83;;;;;21.40;100985.00;;;;2070762;28;20221;-50
2022/03/17 04:22:55;;;;;;;15.43;14.03;;;;;21.40;100985.00;;;;2070960;28;20219;-49
2022/03/17 04:23:55;;;;;;;15.23;13.83;;;;;21.40;100980.00;;;;2069736;28;20598;-50
2022/03/17 04:24:56;;;;;;;14.03;12.77;;;;;21.30;100983.00;;;;2071134;28;20221;-49
2022/03/17 04:25:56;;;;;;;14.70;13.30;;;;;21.40;100987.00;;;;2069862;28;20514;-49
2022/03/17 04:26:56;;;;;;;14.97;13.57;;;;;21.40;100985.00;;;;2070917;28;20218;-50
2022/03/17 04:27:57;;;;;;;13.37;12.07;;;;;21.40;100985.00;;;;2076079;28;20572;-49
2022/03/17 04:28:57;;;;;;;15.33;13.93;;;;;21.40;100985.00;;;;2079236;28;20210;-50
2022/03/17 04:29:57;;;;;;;14.27;13.07;;;;;21.40;100995.00;;;;2078882;28;20245;-50
2022/03/17 04:30:58;;;;;;;14.23;12.93;;;;;21.40;100987.00;;;;2079108;28;20226;-50
2022/03/17 04:31:58;;;;;;;15.00;13.70;;;;;21.40;100993.00;;;;2078809;28;20218;-50
2022/03/17 04:32:59;;;;;;;13.97;12.67;;;;;21.30;101000.00;;;;2079062;28;20217;-48
2022/03/17 04:34:00;;;;;;;14.87;13.57;;;;;21.30;101001.00;;;;2079038;28;20214;-50
2022/03/17 04:35:00;;;;;;;15.00;13.60;;;;;21.30;101001.00;;;;2079094;28;20233;-48
2022/03/17 04:36:04;;;;;;;14.30;13.00;;;;;21.30;100997.00;;;;2078444;28;20209;-50
2022/03/17 04:37:04;;;;;;;14.30;13.00;;;;;21.20;101004.00;;;;2078853;28;20720;-50
2022/03/17 04:38:05;;;;;;;13.83;12.63;;;;;21.40;101008.00;;;;2079020;28;20283;-50
2022/03/17 04:39:06;;;;;;;13.73;12.53;;;;;21.40;101007.00;;;;2079011;28;20217;-49
2022/03/17 04:40:07;;;;;;;14.80;13.43;;;;;21.30;101008.00;;;;2078563;28;20221;-49
2022/03/17 04:41:08;;;;;;;13.90;12.70;;;;;21.30;101018.00;;;;2078870;28;20623;-49
2022/03/17 04:42:09;;;;;;;13.88;12.68;;;;;21.30;101010.00;;;;2079189;28;20240;-50
2022/03/17 04:43:09;;;;;;;13.20;12.10;;;;;21.30;101017.00;;;;2079045;28;20213;-49
2022/03/17 04:44:10;;;;;;;13.40;12.20;;;;;21.30;101021.00;;;;2079030;28;20201;-50
2022/03/17 04:45:10;;;;;;;13.90;12.70;;;;;21.30;101018.00;;;;2079132;28;20205;-50
2022/03/17 04:46:11;;;;;;;14.10;12.90;;;;;21.30;101024.00;;;;2078307;28;20206;-50
2022/03/17 04:47:11;;;;;;;14.50;13.20;;;;;21.30;101023.00;;;;2078927;28;20275;-50
2022/03/17 04:48:12;;;;;;;13.93;12.70;;;;;21.30;101023.00;;;;2078701;28;20217;-50
2022/03/17 04:49:12;;;;;;;12.87;11.77;;;;;21.30;101018.00;;;;2078911;28;20685;-50
2022/03/17 04:50:13;;;;;;;14.17;12.97;;;;;21.30;101028.00;;;;2079243;28;20952;-50
2022/03/17 04:51:13;;;;;;;13.93;12.63;;;;;21.30;101035.00;;;;2078912;28;20233;-50
2022/03/17 04:53:33;;;;;;;13.32;12.23;;;;;21.30;101042.00;;;;2078872;28;20209;-50
2022/03/17 04:54:33;;;;;;;12.70;11.60;;;;;21.30;101038.00;;;;2079017;28;20857;-50
2022/03/17 04:55:34;;;;;;;13.57;12.30;;;;;21.30;101045.00;;;;2078282;28;20685;-49
2022/03/17 04:56:34;;;;;;;14.10;12.80;;;;;21.30;101050.00;;;;2079027;28;20220;-50
2022/03/17 04:57:34;;;;;;;14.03;12.73;;;;;21.30;101046.00;;;;2078533;28;20202;-49
2022/03/17 04:58:37;;;;;;;13.60;12.40;;;;;21.30;101051.00;;;;2078710;28;20210;-50
2022/03/17 04:59:38;;;;;;;13.40;12.20;;;;;21.30;101048.00;;;;2078633;28;20210;-50
2022/03/17 05:00:38;;;;;;;13.87;12.63;;;;;21.30;101052.00;;;;2078834;28;20216;-49
2022/03/17 05:01:39;;;;;;;14.07;12.77;;;;;21.30;101051.00;;;;2075859;28;20440;-49
2022/03/17 05:02:39;;;;;;;13.40;12.20;;;;;21.30;101058.00;;;;2079058;28;20222;-50
2022/03/17 05:03:39;;;;;;;14.07;12.80;;;;;21.30;101061.00;;;;2078739;28;20751;-48
2022/03/17 05:04:40;;;;;;;13.77;12.53;;;;;21.30;101065.00;;;;2078938;28;20241;-49
2022/03/17 05:05:40;;;;;;;13.63;12.43;;;;;21.30;101054.00;;;;2078138;28;20279;-49